Pagina principale
METAR-TAF:

METAR-TAF

Aeroporti :

Aeroporto di Wellington

Wellington, Nuova Zelanda

latitudine: 41-20S, longitudine: 174-48E, altezza: 12 m

Osservazione

Il bollettino è stato emesso 44 minuti fa, alle 13:30 UTC
Vento 17 kt da nord/nord-est
Temperature 14°C
Umidità 72%
Pressione 1025 hPa
Visibilità 10 km o più

METAR: NZWN 191330Z AUTO 02017KT 9999 NCD 14/09 Q1025 NOSIG

Ora: 03:14 (14:14 UTC)

Previsione

Il bollettino è stato emesso 3 ore e 7 minuti fa, alle 11:07 UTC
Previsione valida dal 19 alle 12 UTC al 20 alle 12 UTC
Vento 20 kt da nord con raffiche fino a 30 kt
Visibilità 10 km o più
Poco nuvoloso ad un'altezza di 1500 ft
Probabilità 30%
dal 19 alle 16 UTC al 19 alle 21 UTC
Nuvoloso ad un'altezza di 1200 ft

TAF: NZWN 191107Z 1912/2012 36020G30KT 9999 FEW015 PROB30 1916/1921 BKN012

Osservazioni e previsioni meteorologiche di più di 4000 aeroporti (messaggi METAR e TAF).

Le stazioni disponibili sono rappresentate dai dischi gialli e rossi sulla carta.

Puntare il mouse per vedere il nome della stazione.

Clicca sopra per visualizzare le osservazioni e previsioni meteorologiche.

Per cambiare la mappa : fare clic sui pulsanti verdi con una croce nera per ingrandire, il pulsante verde con un trattino per diminuire, o sulla freccia verde per le mappe adiacenti.


METAR-TAF: